sensor_id;sensor_type;location;lat;lon;timestamp;P1;durP1;ratioP1;P2;durP2;ratioP2
32894;SDS011;19251;49.484;8.260;2023-06-14T00:00:54;4.60;;;3.28;;
32894;SDS011;19251;49.484;8.260;2023-06-14T00:05:58;6.53;;;3.95;;
32894;SDS011;19251;49.484;8.260;2023-06-14T00:11:00;7.70;;;3.58;;
32894;SDS011;19251;49.484;8.260;2023-06-14T00:16:02;8.35;;;3.35;;
32894;SDS011;19251;49.484;8.260;2023-06-14T00:21:05;13.00;;;3.83;;
32894;SDS011;19251;49.484;8.260;2023-06-14T00:26:07;3.70;;;3.12;;
32894;SDS011;19251;49.484;8.260;2023-06-14T00:31:10;7.45;;;3.80;;
32894;SDS011;19251;49.484;8.260;2023-06-14T00:36:12;9.48;;;2.87;;
32894;SDS011;19251;49.484;8.260;2023-06-14T00:41:16;4.85;;;3.72;;
32894;SDS011;19251;49.484;8.260;2023-06-14T00:46:18;4.90;;;3.22;;
32894;SDS011;19251;49.484;8.260;2023-06-14T00:51:30;4.57;;;3.15;;
32894;SDS011;19251;49.484;8.260;2023-06-14T00:56:35;6.70;;;3.55;;
32894;SDS011;19251;49.484;8.260;2023-06-14T01:01:38;2.67;;;2.45;;
32894;SDS011;19251;49.484;8.260;2023-06-14T01:17:34;7.05;;;3.62;;
32894;SDS011;19251;49.484;8.260;2023-06-14T01:22:42;6.80;;;3.42;;
32894;SDS011;19251;49.484;8.260;2023-06-14T01:28:10;4.72;;;3.75;;
32894;SDS011;19251;49.484;8.260;2023-06-14T01:33:15;4.87;;;3.40;;
32894;SDS011;19251;49.484;8.260;2023-06-14T01:38:19;6.18;;;3.95;;
32894;SDS011;19251;49.484;8.260;2023-06-14T01:43:24;12.75;;;3.60;;
32894;SDS011;19251;49.484;8.260;2023-06-14T01:48:27;13.98;;;4.00;;
32894;SDS011;19251;49.484;8.260;2023-06-14T01:53:30;10.30;;;4.15;;
32894;SDS011;19251;49.484;8.260;2023-06-14T01:58:32;5.05;;;3.62;;
32894;SDS011;19251;49.484;8.260;2023-06-14T02:03:35;5.68;;;3.40;;
32894;SDS011;19251;49.484;8.260;2023-06-14T02:08:39;7.22;;;4.50;;
32894;SDS011;19251;49.484;8.260;2023-06-14T02:13:50;7.15;;;4.07;;
32894;SDS011;19251;49.484;8.260;2023-06-14T02:18:53;7.35;;;3.97;;
32894;SDS011;19251;49.484;8.260;2023-06-14T02:23:58;6.75;;;4.50;;
32894;SDS011;19251;49.484;8.260;2023-06-14T02:29:04;6.70;;;3.30;;
32894;SDS011;19251;49.484;8.260;2023-06-14T02:34:26;5.22;;;3.87;;
32894;SDS011;19251;49.484;8.260;2023-06-14T02:39:32;8.07;;;4.15;;
32894;SDS011;19251;49.484;8.260;2023-06-14T02:44:34;5.40;;;4.05;;
32894;SDS011;19251;49.484;8.260;2023-06-14T02:49:36;7.75;;;3.58;;
32894;SDS011;19251;49.484;8.260;2023-06-14T02:54:38;7.15;;;4.03;;
32894;SDS011;19251;49.484;8.260;2023-06-14T02:59:42;5.78;;;3.17;;
32894;SDS011;19251;49.484;8.260;2023-06-14T03:04:45;7.60;;;4.55;;
32894;SDS011;19251;49.484;8.260;2023-06-14T03:09:49;3.95;;;3.12;;
32894;SDS011;19251;49.484;8.260;2023-06-14T03:14:53;4.57;;;3.25;;
32894;SDS011;19251;49.484;8.260;2023-06-14T03:20:09;4.65;;;3.55;;
32894;SDS011;19251;49.484;8.260;2023-06-14T03:25:11;5.47;;;3.58;;
32894;SDS011;19251;49.484;8.260;2023-06-14T03:30:19;5.12;;;3.78;;
32894;SDS011;19251;49.484;8.260;2023-06-14T03:35:22;10.75;;;4.65;;
32894;SDS011;19251;49.484;8.260;2023-06-14T03:40:25;5.10;;;3.37;;
32894;SDS011;19251;49.484;8.260;2023-06-14T03:45:31;7.62;;;3.47;;
32894;SDS011;19251;49.484;8.260;2023-06-14T03:50:34;7.90;;;3.83;;
32894;SDS011;19251;49.484;8.260;2023-06-14T03:55:36;5.53;;;4.05;;
32894;SDS011;19251;49.484;8.260;2023-06-14T04:00:58;17.92;;;4.05;;
32894;SDS011;19251;49.484;8.260;2023-06-14T04:06:04;5.50;;;3.67;;
32894;SDS011;19251;49.484;8.260;2023-06-14T04:11:08;4.68;;;3.37;;
32894;SDS011;19251;49.484;8.260;2023-06-14T04:16:10;8.27;;;4.00;;
32894;SDS011;19251;49.484;8.260;2023-06-14T04:21:12;6.00;;;4.12;;
32894;SDS011;19251;49.484;8.260;2023-06-14T04:26:15;4.57;;;3.15;;
32894;SDS011;19251;49.484;8.260;2023-06-14T04:31:19;15.50;;;4.40;;
32894;SDS011;19251;49.484;8.260;2023-06-14T04:36:23;4.95;;;3.70;;
32894;SDS011;19251;49.484;8.260;2023-06-14T04:41:29;9.80;;;3.72;;
32894;SDS011;19251;49.484;8.260;2023-06-14T04:46:34;10.02;;;3.85;;
32894;SDS011;19251;49.484;8.260;2023-06-14T04:51:49;5.87;;;3.53;;
32894;SDS011;19251;49.484;8.260;2023-06-14T04:56:59;5.62;;;4.07;;
32894;SDS011;19251;49.484;8.260;2023-06-14T05:02:02;24.67;;;3.83;;
32894;SDS011;19251;49.484;8.260;2023-06-14T05:07:04;10.63;;;5.00;;
32894;SDS011;19251;49.484;8.260;2023-06-14T05:12:07;7.00;;;3.92;;
32894;SDS011;19251;49.484;8.260;2023-06-14T05:17:11;3.55;;;2.62;;
32894;SDS011;19251;49.484;8.260;2023-06-14T05:22:13;4.60;;;3.28;;
32894;SDS011;19251;49.484;8.260;2023-06-14T05:27:16;6.85;;;4.20;;
32894;SDS011;19251;49.484;8.260;2023-06-14T05:32:19;7.00;;;3.45;;
32894;SDS011;19251;49.484;8.260;2023-06-14T05:37:21;7.57;;;3.40;;
32894;SDS011;19251;49.484;8.260;2023-06-14T05:42:24;4.30;;;3.90;;
32894;SDS011;19251;49.484;8.260;2023-06-14T05:47:26;4.72;;;3.03;;
32894;SDS011;19251;49.484;8.260;2023-06-14T05:52:29;8.95;;;3.78;;
32894;SDS011;19251;49.484;8.260;2023-06-14T05:57:33;6.87;;;3.92;;
32894;SDS011;19251;49.484;8.260;2023-06-14T06:02:35;4.62;;;3.15;;
32894;SDS011;19251;49.484;8.260;2023-06-14T06:07:37;7.00;;;4.10;;
32894;SDS011;19251;49.484;8.260;2023-06-14T06:12:42;6.65;;;3.67;;
32894;SDS011;19251;49.484;8.260;2023-06-14T06:17:44;4.80;;;3.08;;
32894;SDS011;19251;49.484;8.260;2023-06-14T06:22:59;7.32;;;3.70;;
32894;SDS011;19251;49.484;8.260;2023-06-14T06:28:02;6.90;;;3.58;;
32894;SDS011;19251;49.484;8.260;2023-06-14T06:38:07;6.85;;;3.95;;
32894;SDS011;19251;49.484;8.260;2023-06-14T06:43:11;7.22;;;4.05;;
32894;SDS011;19251;49.484;8.260;2023-06-14T06:48:19;13.00;;;4.10;;
32894;SDS011;19251;49.484;8.260;2023-06-14T06:53:21;6.65;;;3.33;;
32894;SDS011;19251;49.484;8.260;2023-06-14T06:58:40;9.35;;;3.85;;
32894;SDS011;19251;49.484;8.260;2023-06-14T07:03:43;5.70;;;3.17;;
32894;SDS011;19251;49.484;8.260;2023-06-14T07:08:45;7.30;;;3.42;;
32894;SDS011;19251;49.484;8.260;2023-06-14T07:13:51;11.50;;;4.12;;
32894;SDS011;19251;49.484;8.260;2023-06-14T07:18:53;22.35;;;4.03;;
32894;SDS011;19251;49.484;8.260;2023-06-14T07:23:56;8.85;;;3.72;;
32894;SDS011;19251;49.484;8.260;2023-06-14T07:28:58;11.02;;;4.25;;
32894;SDS011;19251;49.484;8.260;2023-06-14T07:34:01;6.25;;;3.85;;
32894;SDS011;19251;49.484;8.260;2023-06-14T07:39:04;5.05;;;3.37;;
32894;SDS011;19251;49.484;8.260;2023-06-14T07:44:08;3.87;;;3.25;;
32894;SDS011;19251;49.484;8.260;2023-06-14T07:49:10;5.40;;;3.28;;
32894;SDS011;19251;49.484;8.260;2023-06-14T07:54:12;10.63;;;3.42;;
32894;SDS011;19251;49.484;8.260;2023-06-14T07:59:15;6.20;;;2.75;;
32894;SDS011;19251;49.484;8.260;2023-06-14T08:04:19;7.32;;;3.70;;
32894;SDS011;19251;49.484;8.260;2023-06-14T08:09:21;8.70;;;3.60;;
32894;SDS011;19251;49.484;8.260;2023-06-14T08:14:23;6.55;;;3.37;;
32894;SDS011;19251;49.484;8.260;2023-06-14T08:24:28;13.00;;;3.70;;
32894;SDS011;19251;49.484;8.260;2023-06-14T08:29:30;6.50;;;2.80;;
32894;SDS011;19251;49.484;8.260;2023-06-14T08:39:35;6.20;;;3.22;;
32894;SDS011;19251;49.484;8.260;2023-06-14T08:44:37;4.57;;;3.33;;
32894;SDS011;19251;49.484;8.260;2023-06-14T08:49:39;10.93;;;4.18;;
32894;SDS011;19251;49.484;8.260;2023-06-14T08:54:46;6.57;;;2.95;;
32894;SDS011;19251;49.484;8.260;2023-06-14T08:59:50;7.22;;;2.65;;
32894;SDS011;19251;49.484;8.260;2023-06-14T09:04:56;4.25;;;3.17;;
32894;SDS011;19251;49.484;8.260;2023-06-14T09:10:05;4.47;;;2.65;;
32894;SDS011;19251;49.484;8.260;2023-06-14T09:15:15;3.20;;;2.05;;
32894;SDS011;19251;49.484;8.260;2023-06-14T09:20:18;4.05;;;3.12;;
32894;SDS011;19251;49.484;8.260;2023-06-14T09:25:21;6.32;;;2.15;;
32894;SDS011;19251;49.484;8.260;2023-06-14T09:30:39;4.15;;;2.22;;
32894;SDS011;19251;49.484;8.260;2023-06-14T09:35:42;3.70;;;2.00;;
32894;SDS011;19251;49.484;8.260;2023-06-14T09:40:49;2.30;;;2.10;;
32894;SDS011;19251;49.484;8.260;2023-06-14T09:45:51;3.75;;;2.75;;
32894;SDS011;19251;49.484;8.260;2023-06-14T09:50:53;3.55;;;2.80;;
32894;SDS011;19251;49.484;8.260;2023-06-14T09:55:59;3.97;;;2.30;;
32894;SDS011;19251;49.484;8.260;2023-06-14T10:01:02;2.78;;;2.45;;
32894;SDS011;19251;49.484;8.260;2023-06-14T10:06:08;7.80;;;2.50;;
32894;SDS011;19251;49.484;8.260;2023-06-14T10:11:12;3.62;;;2.10;;
32894;SDS011;19251;49.484;8.260;2023-06-14T10:16:17;20.02;;;2.53;;
32894;SDS011;19251;49.484;8.260;2023-06-14T10:21:51;2.25;;;2.05;;
32894;SDS011;19251;49.484;8.260;2023-06-14T10:26:59;2.12;;;1.67;;
32894;SDS011;19251;49.484;8.260;2023-06-14T10:32:02;3.33;;;2.50;;
32894;SDS011;19251;49.484;8.260;2023-06-14T10:37:07;5.43;;;2.92;;
32894;SDS011;19251;49.484;8.260;2023-06-14T10:42:14;6.57;;;1.92;;
32894;SDS011;19251;49.484;8.260;2023-06-14T10:47:32;5.12;;;2.10;;
32894;SDS011;19251;49.484;8.260;2023-06-14T10:52:40;5.37;;;3.00;;
32894;SDS011;19251;49.484;8.260;2023-06-14T10:57:48;9.88;;;3.12;;
32894;SDS011;19251;49.484;8.260;2023-06-14T11:13:50;2.45;;;1.90;;
32894;SDS011;19251;49.484;8.260;2023-06-14T11:18:55;3.97;;;1.85;;
32894;SDS011;19251;49.484;8.260;2023-06-14T11:23:58;4.37;;;2.45;;
32894;SDS011;19251;49.484;8.260;2023-06-14T11:29:00;3.30;;;2.47;;
32894;SDS011;19251;49.484;8.260;2023-06-14T11:34:03;3.47;;;2.50;;
32894;SDS011;19251;49.484;8.260;2023-06-14T11:39:07;3.00;;;2.10;;
32894;SDS011;19251;49.484;8.260;2023-06-14T11:44:10;4.28;;;2.53;;
32894;SDS011;19251;49.484;8.260;2023-06-14T11:49:13;6.87;;;2.55;;
32894;SDS011;19251;49.484;8.260;2023-06-14T11:54:15;4.25;;;2.83;;
32894;SDS011;19251;49.484;8.260;2023-06-14T11:59:18;4.93;;;2.35;;
32894;SDS011;19251;49.484;8.260;2023-06-14T12:04:26;8.65;;;2.87;;
32894;SDS011;19251;49.484;8.260;2023-06-14T12:09:28;2.90;;;2.20;;
32894;SDS011;19251;49.484;8.260;2023-06-14T12:14:31;1.83;;;1.70;;
32894;SDS011;19251;49.484;8.260;2023-06-14T12:19:33;4.78;;;2.55;;
32894;SDS011;19251;49.484;8.260;2023-06-14T12:24:44;8.63;;;2.10;;
32894;SDS011;19251;49.484;8.260;2023-06-14T12:29:47;9.48;;;2.50;;
32894;SDS011;19251;49.484;8.260;2023-06-14T12:35:01;6.53;;;2.45;;
32894;SDS011;19251;49.484;8.260;2023-06-14T12:40:04;4.18;;;2.05;;
32894;SDS011;19251;49.484;8.260;2023-06-14T12:45:07;4.45;;;2.60;;
32894;SDS011;19251;49.484;8.260;2023-06-14T12:50:10;5.50;;;2.80;;
32894;SDS011;19251;49.484;8.260;2023-06-14T12:55:12;3.08;;;2.25;;
32894;SDS011;19251;49.484;8.260;2023-06-14T13:00:16;3.00;;;2.60;;
32894;SDS011;19251;49.484;8.260;2023-06-14T13:05:20;10.27;;;2.70;;
32894;SDS011;19251;49.484;8.260;2023-06-14T13:10:22;2.97;;;2.58;;
32894;SDS011;19251;49.484;8.260;2023-06-14T13:15:24;4.70;;;2.70;;
32894;SDS011;19251;49.484;8.260;2023-06-14T13:20:26;4.10;;;2.33;;
32894;SDS011;19251;49.484;8.260;2023-06-14T13:25:29;5.37;;;2.42;;
32894;SDS011;19251;49.484;8.260;2023-06-14T13:30:31;5.15;;;3.20;;
32894;SDS011;19251;49.484;8.260;2023-06-14T13:35:34;7.37;;;3.67;;
32894;SDS011;19251;49.484;8.260;2023-06-14T13:40:37;3.72;;;2.53;;
32894;SDS011;19251;49.484;8.260;2023-06-14T13:45:39;2.92;;;2.20;;
32894;SDS011;19251;49.484;8.260;2023-06-14T13:50:42;6.60;;;2.60;;
32894;SDS011;19251;49.484;8.260;2023-06-14T13:55:44;5.80;;;2.65;;
32894;SDS011;19251;49.484;8.260;2023-06-14T14:00:46;2.65;;;2.45;;
32894;SDS011;19251;49.484;8.260;2023-06-14T14:05:49;6.28;;;2.55;;
32894;SDS011;19251;49.484;8.260;2023-06-14T14:10:51;8.93;;;2.42;;
32894;SDS011;19251;49.484;8.260;2023-06-14T14:15:53;5.97;;;2.55;;
32894;SDS011;19251;49.484;8.260;2023-06-14T14:20:56;7.15;;;2.40;;
32894;SDS011;19251;49.484;8.260;2023-06-14T14:25:58;5.37;;;2.08;;
32894;SDS011;19251;49.484;8.260;2023-06-14T14:31:05;2.55;;;2.33;;
32894;SDS011;19251;49.484;8.260;2023-06-14T14:36:07;3.60;;;2.42;;
32894;SDS011;19251;49.484;8.260;2023-06-14T14:41:09;4.72;;;2.60;;
32894;SDS011;19251;49.484;8.260;2023-06-14T14:46:12;2.90;;;2.60;;
32894;SDS011;19251;49.484;8.260;2023-06-14T14:51:14;4.57;;;2.33;;
32894;SDS011;19251;49.484;8.260;2023-06-14T14:56:16;6.43;;;2.72;;
32894;SDS011;19251;49.484;8.260;2023-06-14T15:01:19;20.02;;;3.28;;
32894;SDS011;19251;49.484;8.260;2023-06-14T15:06:21;5.85;;;2.78;;
32894;SDS011;19251;49.484;8.260;2023-06-14T15:11:23;6.12;;;3.00;;
32894;SDS011;19251;49.484;8.260;2023-06-14T15:16:25;3.75;;;2.60;;
32894;SDS011;19251;49.484;8.260;2023-06-14T15:21:28;6.22;;;2.70;;
32894;SDS011;19251;49.484;8.260;2023-06-14T15:26:30;5.30;;;2.90;;
32894;SDS011;19251;49.484;8.260;2023-06-14T15:31:32;5.45;;;2.75;;
32894;SDS011;19251;49.484;8.260;2023-06-14T15:36:34;3.80;;;2.80;;
32894;SDS011;19251;49.484;8.260;2023-06-14T15:41:37;2.72;;;2.42;;
32894;SDS011;19251;49.484;8.260;2023-06-14T15:46:39;5.25;;;3.33;;
32894;SDS011;19251;49.484;8.260;2023-06-14T15:51:41;2.53;;;2.05;;
32894;SDS011;19251;49.484;8.260;2023-06-14T15:56:43;3.12;;;2.30;;
32894;SDS011;19251;49.484;8.260;2023-06-14T16:01:45;4.60;;;2.05;;
32894;SDS011;19251;49.484;8.260;2023-06-14T16:06:48;3.65;;;2.87;;
32894;SDS011;19251;49.484;8.260;2023-06-14T16:11:50;4.00;;;2.62;;
32894;SDS011;19251;49.484;8.260;2023-06-14T16:16:52;5.85;;;2.65;;
32894;SDS011;19251;49.484;8.260;2023-06-14T16:21:54;5.43;;;2.95;;
32894;SDS011;19251;49.484;8.260;2023-06-14T16:26:56;2.75;;;2.20;;
32894;SDS011;19251;49.484;8.260;2023-06-14T16:31:59;3.42;;;2.50;;
32894;SDS011;19251;49.484;8.260;2023-06-14T16:37:01;4.60;;;2.42;;
32894;SDS011;19251;49.484;8.260;2023-06-14T16:42:05;2.70;;;2.15;;
32894;SDS011;19251;49.484;8.260;2023-06-14T16:47:08;12.35;;;2.53;;
32894;SDS011;19251;49.484;8.260;2023-06-14T16:52:12;5.72;;;2.50;;
32894;SDS011;19251;49.484;8.260;2023-06-14T16:57:14;8.52;;;2.22;;
32894;SDS011;19251;49.484;8.260;2023-06-14T17:02:16;2.30;;;2.05;;
32894;SDS011;19251;49.484;8.260;2023-06-14T17:07:18;6.80;;;2.42;;
32894;SDS011;19251;49.484;8.260;2023-06-14T17:12:21;5.93;;;2.50;;
32894;SDS011;19251;49.484;8.260;2023-06-14T17:17:23;2.42;;;2.10;;
32894;SDS011;19251;49.484;8.260;2023-06-14T17:22:25;2.58;;;2.10;;
32894;SDS011;19251;49.484;8.260;2023-06-14T17:27:27;3.33;;;2.72;;
32894;SDS011;19251;49.484;8.260;2023-06-14T17:32:29;6.25;;;2.90;;
32894;SDS011;19251;49.484;8.260;2023-06-14T17:37:32;3.30;;;2.35;;
32894;SDS011;19251;49.484;8.260;2023-06-14T17:42:34;5.32;;;2.03;;
32894;SDS011;19251;49.484;8.260;2023-06-14T17:47:37;2.58;;;2.30;;
32894;SDS011;19251;49.484;8.260;2023-06-14T17:52:40;5.05;;;2.33;;
32894;SDS011;19251;49.484;8.260;2023-06-14T17:57:42;3.30;;;2.53;;
32894;SDS011;19251;49.484;8.260;2023-06-14T18:02:44;6.05;;;2.50;;
32894;SDS011;19251;49.484;8.260;2023-06-14T18:07:48;3.70;;;2.47;;
32894;SDS011;19251;49.484;8.260;2023-06-14T18:12:50;5.68;;;2.62;;
32894;SDS011;19251;49.484;8.260;2023-06-14T18:17:52;2.65;;;2.10;;
32894;SDS011;19251;49.484;8.260;2023-06-14T18:22:56;2.22;;;2.03;;
32894;SDS011;19251;49.484;8.260;2023-06-14T18:27:59;3.67;;;1.65;;
32894;SDS011;19251;49.484;8.260;2023-06-14T18:33:01;3.95;;;2.15;;
32894;SDS011;19251;49.484;8.260;2023-06-14T18:38:04;5.00;;;2.45;;
32894;SDS011;19251;49.484;8.260;2023-06-14T18:43:07;9.88;;;2.42;;
32894;SDS011;19251;49.484;8.260;2023-06-14T18:48:13;8.38;;;2.75;;
32894;SDS011;19251;49.484;8.260;2023-06-14T18:53:16;8.35;;;2.35;;
32894;SDS011;19251;49.484;8.260;2023-06-14T18:58:18;4.10;;;2.20;;
32894;SDS011;19251;49.484;8.260;2023-06-14T19:03:21;2.10;;;1.90;;
32894;SDS011;19251;49.484;8.260;2023-06-14T19:08:23;5.95;;;2.17;;
32894;SDS011;19251;49.484;8.260;2023-06-14T19:13:26;3.90;;;1.95;;
32894;SDS011;19251;49.484;8.260;2023-06-14T19:18:30;12.32;;;2.30;;
32894;SDS011;19251;49.484;8.260;2023-06-14T19:23:32;4.37;;;1.70;;
32894;SDS011;19251;49.484;8.260;2023-06-14T19:28:35;6.47;;;2.40;;
32894;SDS011;19251;49.484;8.260;2023-06-14T19:33:37;3.78;;;1.95;;
32894;SDS011;19251;49.484;8.260;2023-06-14T19:38:39;2.83;;;1.80;;
32894;SDS011;19251;49.484;8.260;2023-06-14T19:43:41;4.53;;;2.17;;
32894;SDS011;19251;49.484;8.260;2023-06-14T19:48:44;3.67;;;1.85;;
32894;SDS011;19251;49.484;8.260;2023-06-14T19:53:47;2.60;;;2.12;;
32894;SDS011;19251;49.484;8.260;2023-06-14T19:58:49;3.72;;;2.08;;
32894;SDS011;19251;49.484;8.260;2023-06-14T20:03:52;3.03;;;1.90;;
32894;SDS011;19251;49.484;8.260;2023-06-14T20:08:54;3.05;;;1.80;;
32894;SDS011;19251;49.484;8.260;2023-06-14T20:13:56;11.12;;;2.20;;
32894;SDS011;19251;49.484;8.260;2023-06-14T20:18:58;4.60;;;1.30;;
32894;SDS011;19251;49.484;8.260;2023-06-14T20:24:04;3.35;;;1.87;;
32894;SDS011;19251;49.484;8.260;2023-06-14T20:29:06;8.00;;;2.33;;
32894;SDS011;19251;49.484;8.260;2023-06-14T20:34:09;4.60;;;2.58;;
32894;SDS011;19251;49.484;8.260;2023-06-14T20:39:11;3.30;;;1.30;;
32894;SDS011;19251;49.484;8.260;2023-06-14T20:44:13;7.40;;;1.87;;
32894;SDS011;19251;49.484;8.260;2023-06-14T20:49:17;5.93;;;1.92;;
32894;SDS011;19251;49.484;8.260;2023-06-14T20:54:20;8.43;;;1.85;;
32894;SDS011;19251;49.484;8.260;2023-06-14T20:59:22;2.05;;;1.73;;
32894;SDS011;19251;49.484;8.260;2023-06-14T21:04:24;10.77;;;2.65;;
32894;SDS011;19251;49.484;8.260;2023-06-14T21:09:27;2.20;;;1.70;;
32894;SDS011;19251;49.484;8.260;2023-06-14T21:14:30;4.47;;;2.30;;
32894;SDS011;19251;49.484;8.260;2023-06-14T21:19:32;2.80;;;1.98;;
32894;SDS011;19251;49.484;8.260;2023-06-14T21:24:34;3.28;;;1.52;;
32894;SDS011;19251;49.484;8.260;2023-06-14T21:29:37;1.85;;;1.42;;
32894;SDS011;19251;49.484;8.260;2023-06-14T21:34:42;13.77;;;2.00;;
32894;SDS011;19251;49.484;8.260;2023-06-14T21:39:45;8.02;;;1.62;;
32894;SDS011;19251;49.484;8.260;2023-06-14T21:44:47;3.35;;;1.85;;
32894;SDS011;19251;49.484;8.260;2023-06-14T21:49:52;2.22;;;1.83;;
32894;SDS011;19251;49.484;8.260;2023-06-14T21:54:54;3.17;;;1.87;;
32894;SDS011;19251;49.484;8.260;2023-06-14T22:00:00;4.90;;;2.05;;
32894;SDS011;19251;49.484;8.260;2023-06-14T22:05:04;4.82;;;2.00;;
32894;SDS011;19251;49.484;8.260;2023-06-14T22:10:07;3.60;;;1.85;;
32894;SDS011;19251;49.484;8.260;2023-06-14T22:15:10;7.50;;;2.03;;
32894;SDS011;19251;49.484;8.260;2023-06-14T22:20:13;3.95;;;2.45;;
32894;SDS011;19251;49.484;8.260;2023-06-14T22:25:16;7.45;;;2.53;;
32894;SDS011;19251;49.484;8.260;2023-06-14T22:30:18;8.77;;;2.47;;
32894;SDS011;19251;49.484;8.260;2023-06-14T22:40:23;6.65;;;2.05;;
32894;SDS011;19251;49.484;8.260;2023-06-14T22:45:25;3.17;;;1.80;;
32894;SDS011;19251;49.484;8.260;2023-06-14T22:50:31;2.83;;;1.73;;
32894;SDS011;19251;49.484;8.260;2023-06-14T22:55:33;2.92;;;2.10;;
32894;SDS011;19251;49.484;8.260;2023-06-14T23:05:38;3.25;;;1.62;;
32894;SDS011;19251;49.484;8.260;2023-06-14T23:10:43;1.83;;;1.58;;
32894;SDS011;19251;49.484;8.260;2023-06-14T23:15:46;7.62;;;2.08;;
32894;SDS011;19251;49.484;8.260;2023-06-14T23:25:51;3.20;;;1.98;;
32894;SDS011;19251;49.484;8.260;2023-06-14T23:30:55;2.12;;;1.90;;
32894;SDS011;19251;49.484;8.260;2023-06-14T23:35:59;8.43;;;1.98;;
32894;SDS011;19251;49.484;8.260;2023-06-14T23:41:05;3.83;;;1.85;;
32894;SDS011;19251;49.484;8.260;2023-06-14T23:46:11;6.78;;;2.97;;
32894;SDS011;19251;49.484;8.260;2023-06-14T23:51:13;2.65;;;1.90;;
32894;SDS011;19251;49.484;8.260;2023-06-14T23:56:17;20.35;;;2.20;;
